sensor_id;sensor_type;location;lat;lon;timestamp;P1;durP1;ratioP1;P2;durP2;ratioP2
17524;SDS011;40431;52.198;9.902;2022-10-17T00:00:04;3.33;;;3.13;;
17524;SDS011;40431;52.198;9.902;2022-10-17T00:02:32;3.77;;;3.47;;
17524;SDS011;40431;52.198;9.902;2022-10-17T00:05:00;5.77;;;4.27;;
17524;SDS011;40431;52.198;9.902;2022-10-17T00:07:26;5.37;;;3.60;;
17524;SDS011;40431;52.198;9.902;2022-10-17T00:09:52;3.33;;;3.13;;
17524;SDS011;40431;52.198;9.902;2022-10-17T00:12:19;3.93;;;3.63;;
17524;SDS011;40431;52.198;9.902;2022-10-17T00:14:45;7.53;;;3.17;;
17524;SDS011;40431;52.198;9.902;2022-10-17T00:17:12;3.30;;;3.03;;
17524;SDS011;40431;52.198;9.902;2022-10-17T00:19:39;3.57;;;3.10;;
17524;SDS011;40431;52.198;9.902;2022-10-17T00:22:07;3.27;;;3.07;;
17524;SDS011;40431;52.198;9.902;2022-10-17T00:24:33;3.20;;;3.00;;
17524;SDS011;40431;52.198;9.902;2022-10-17T00:27:00;3.90;;;3.20;;
17524;SDS011;40431;52.198;9.902;2022-10-17T00:29:26;3.20;;;3.00;;
17524;SDS011;40431;52.198;9.902;2022-10-17T00:31:53;4.07;;;3.67;;
17524;SDS011;40431;52.198;9.902;2022-10-17T00:34:20;3.70;;;3.50;;
17524;SDS011;40431;52.198;9.902;2022-10-17T00:36:47;4.97;;;4.50;;
17524;SDS011;40431;52.198;9.902;2022-10-17T00:39:15;5.57;;;3.80;;
17524;SDS011;40431;52.198;9.902;2022-10-17T00:41:41;10.27;;;3.67;;
17524;SDS011;40431;52.198;9.902;2022-10-17T00:47:11;2.80;;;2.60;;
17524;SDS011;40431;52.198;9.902;2022-10-17T00:49:41;3.50;;;3.20;;
17524;SDS011;40431;52.198;9.902;2022-10-17T00:52:08;3.63;;;3.43;;
17524;SDS011;40431;52.198;9.902;2022-10-17T00:54:40;3.17;;;2.97;;
17524;SDS011;40431;52.198;9.902;2022-10-17T00:57:09;3.17;;;2.60;;
17524;SDS011;40431;52.198;9.902;2022-10-17T00:59:37;3.73;;;3.17;;
17524;SDS011;40431;52.198;9.902;2022-10-17T01:02:07;3.03;;;2.87;;
17524;SDS011;40431;52.198;9.902;2022-10-17T01:04:36;3.10;;;2.90;;
17524;SDS011;40431;52.198;9.902;2022-10-17T01:07:04;3.87;;;3.07;;
17524;SDS011;40431;52.198;9.902;2022-10-17T01:09:30;7.83;;;3.20;;
17524;SDS011;40431;52.198;9.902;2022-10-17T01:11:59;2.80;;;2.70;;
17524;SDS011;40431;52.198;9.902;2022-10-17T01:14:34;3.33;;;3.03;;
17524;SDS011;40431;52.198;9.902;2022-10-17T01:17:13;3.20;;;3.00;;
17524;SDS011;40431;52.198;9.902;2022-10-17T01:19:54;4.33;;;3.03;;
17524;SDS011;40431;52.198;9.902;2022-10-17T01:22:40;3.10;;;2.80;;
17524;SDS011;40431;52.198;9.902;2022-10-17T01:25:17;6.13;;;3.07;;
17524;SDS011;40431;52.198;9.902;2022-10-17T01:28:01;2.87;;;2.50;;
17524;SDS011;40431;52.198;9.902;2022-10-17T01:30:59;3.23;;;2.93;;
17524;SDS011;40431;52.198;9.902;2022-10-17T01:33:38;2.73;;;2.53;;
17524;SDS011;40431;52.198;9.902;2022-10-17T01:36:23;5.17;;;2.90;;
17524;SDS011;40431;52.198;9.902;2022-10-17T01:38:59;2.53;;;2.43;;
17524;SDS011;40431;52.198;9.902;2022-10-17T01:41:34;3.20;;;3.00;;
17524;SDS011;40431;52.198;9.902;2022-10-17T01:44:07;3.33;;;3.00;;
17524;SDS011;40431;52.198;9.902;2022-10-17T01:46:38;2.60;;;2.40;;
17524;SDS011;40431;52.198;9.902;2022-10-17T01:49:08;3.43;;;2.90;;
17524;SDS011;40431;52.198;9.902;2022-10-17T01:51:39;2.80;;;2.60;;
17524;SDS011;40431;52.198;9.902;2022-10-17T01:54:10;2.70;;;2.53;;
17524;SDS011;40431;52.198;9.902;2022-10-17T01:56:40;3.30;;;3.10;;
17524;SDS011;40431;52.198;9.902;2022-10-17T01:59:10;3.20;;;3.00;;
17524;SDS011;40431;52.198;9.902;2022-10-17T02:01:42;5.57;;;2.90;;
17524;SDS011;40431;52.198;9.902;2022-10-17T02:04:10;3.97;;;2.53;;
17524;SDS011;40431;52.198;9.902;2022-10-17T02:06:37;3.20;;;3.00;;
17524;SDS011;40431;52.198;9.902;2022-10-17T02:09:14;3.40;;;2.70;;
17524;SDS011;40431;52.198;9.902;2022-10-17T02:11:42;2.80;;;2.60;;
17524;SDS011;40431;52.198;9.902;2022-10-17T02:14:18;2.80;;;2.60;;
17524;SDS011;40431;52.198;9.902;2022-10-17T02:16:54;3.80;;;3.50;;
17524;SDS011;40431;52.198;9.902;2022-10-17T02:19:38;4.93;;;3.23;;
17524;SDS011;40431;52.198;9.902;2022-10-17T02:22:16;3.20;;;2.90;;
17524;SDS011;40431;52.198;9.902;2022-10-17T02:24:51;4.00;;;3.70;;
17524;SDS011;40431;52.198;9.902;2022-10-17T02:27:25;3.77;;;3.47;;
17524;SDS011;40431;52.198;9.902;2022-10-17T02:30:00;4.67;;;3.70;;
17524;SDS011;40431;52.198;9.902;2022-10-17T02:32:35;4.33;;;3.93;;
17524;SDS011;40431;52.198;9.902;2022-10-17T02:35:08;4.70;;;4.30;;
17524;SDS011;40431;52.198;9.902;2022-10-17T02:37:38;4.70;;;4.40;;
17524;SDS011;40431;52.198;9.902;2022-10-17T02:40:07;4.00;;;3.70;;
17524;SDS011;40431;52.198;9.902;2022-10-17T02:42:36;4.10;;;3.80;;
17524;SDS011;40431;52.198;9.902;2022-10-17T02:45:04;7.13;;;3.57;;
17524;SDS011;40431;52.198;9.902;2022-10-17T02:47:35;4.33;;;4.00;;
17524;SDS011;40431;52.198;9.902;2022-10-17T02:50:07;4.57;;;4.27;;
17524;SDS011;40431;52.198;9.902;2022-10-17T02:52:34;5.00;;;4.70;;
17524;SDS011;40431;52.198;9.902;2022-10-17T02:55:05;4.47;;;4.17;;
17524;SDS011;40431;52.198;9.902;2022-10-17T02:57:37;4.37;;;4.10;;
17524;SDS011;40431;52.198;9.902;2022-10-17T03:00:08;4.73;;;4.33;;
17524;SDS011;40431;52.198;9.902;2022-10-17T03:02:40;7.83;;;4.37;;
17524;SDS011;40431;52.198;9.902;2022-10-17T03:05:08;7.13;;;4.90;;
17524;SDS011;40431;52.198;9.902;2022-10-17T03:07:34;5.03;;;4.73;;
17524;SDS011;40431;52.198;9.902;2022-10-17T03:10:01;4.77;;;4.47;;
17524;SDS011;40431;52.198;9.902;2022-10-17T03:12:28;5.10;;;3.97;;
17524;SDS011;40431;52.198;9.902;2022-10-17T03:14:54;4.40;;;4.10;;
17524;SDS011;40431;52.198;9.902;2022-10-17T03:17:20;4.37;;;4.07;;
17524;SDS011;40431;52.198;9.902;2022-10-17T03:19:48;4.40;;;4.07;;
17524;SDS011;40431;52.198;9.902;2022-10-17T03:22:15;4.43;;;4.03;;
17524;SDS011;40431;52.198;9.902;2022-10-17T03:24:41;4.43;;;4.13;;
17524;SDS011;40431;52.198;9.902;2022-10-17T03:27:07;4.43;;;4.07;;
17524;SDS011;40431;52.198;9.902;2022-10-17T03:29:34;4.20;;;3.90;;
17524;SDS011;40431;52.198;9.902;2022-10-17T03:32:00;4.80;;;4.40;;
17524;SDS011;40431;52.198;9.902;2022-10-17T03:34:27;4.30;;;4.00;;
17524;SDS011;40431;52.198;9.902;2022-10-17T03:36:55;4.70;;;4.40;;
17524;SDS011;40431;52.198;9.902;2022-10-17T03:39:21;4.70;;;4.30;;
17524;SDS011;40431;52.198;9.902;2022-10-17T03:41:48;4.67;;;4.30;;
17524;SDS011;40431;52.198;9.902;2022-10-17T03:44:14;6.20;;;4.93;;
17524;SDS011;40431;52.198;9.902;2022-10-17T03:46:41;4.70;;;4.30;;
17524;SDS011;40431;52.198;9.902;2022-10-17T03:49:08;4.33;;;3.97;;
17524;SDS011;40431;52.198;9.902;2022-10-17T03:51:35;4.73;;;4.43;;
17524;SDS011;40431;52.198;9.902;2022-10-17T03:54:03;4.73;;;4.30;;
17524;SDS011;40431;52.198;9.902;2022-10-17T03:56:30;4.67;;;4.37;;
17524;SDS011;40431;52.198;9.902;2022-10-17T03:58:56;5.03;;;4.70;;
17524;SDS011;40431;52.198;9.902;2022-10-17T04:01:23;5.00;;;4.60;;
17524;SDS011;40431;52.198;9.902;2022-10-17T04:03:50;4.20;;;4.00;;
17524;SDS011;40431;52.198;9.902;2022-10-17T04:06:17;4.53;;;4.23;;
17524;SDS011;40431;52.198;9.902;2022-10-17T04:08:44;4.60;;;4.30;;
17524;SDS011;40431;52.198;9.902;2022-10-17T04:11:14;3.27;;;3.07;;
17524;SDS011;40431;52.198;9.902;2022-10-17T04:13:41;4.23;;;3.83;;
17524;SDS011;40431;52.198;9.902;2022-10-17T04:16:09;6.87;;;3.53;;
17524;SDS011;40431;52.198;9.902;2022-10-17T04:18:38;3.70;;;3.40;;
17524;SDS011;40431;52.198;9.902;2022-10-17T04:21:05;3.23;;;3.03;;
17524;SDS011;40431;52.198;9.902;2022-10-17T04:23:32;4.03;;;3.37;;
17524;SDS011;40431;52.198;9.902;2022-10-17T04:26:01;3.20;;;3.00;;
17524;SDS011;40431;52.198;9.902;2022-10-17T04:28:30;3.70;;;3.20;;
17524;SDS011;40431;52.198;9.902;2022-10-17T04:31:00;4.97;;;3.67;;
17524;SDS011;40431;52.198;9.902;2022-10-17T04:33:29;3.20;;;2.90;;
17524;SDS011;40431;52.198;9.902;2022-10-17T04:35:57;3.17;;;2.97;;
17524;SDS011;40431;52.198;9.902;2022-10-17T04:38:24;4.07;;;2.60;;
17524;SDS011;40431;52.198;9.902;2022-10-17T04:40:51;2.97;;;2.77;;
17524;SDS011;40431;52.198;9.902;2022-10-17T04:43:17;3.20;;;2.90;;
17524;SDS011;40431;52.198;9.902;2022-10-17T04:45:46;3.50;;;3.30;;
17524;SDS011;40431;52.198;9.902;2022-10-17T04:48:12;3.50;;;3.20;;
17524;SDS011;40431;52.198;9.902;2022-10-17T04:50:39;5.17;;;3.30;;
17524;SDS011;40431;52.198;9.902;2022-10-17T04:53:05;3.20;;;2.90;;
17524;SDS011;40431;52.198;9.902;2022-10-17T04:55:35;4.87;;;3.20;;
17524;SDS011;40431;52.198;9.902;2022-10-17T04:58:02;2.83;;;2.63;;
17524;SDS011;40431;52.198;9.902;2022-10-17T05:00:29;3.53;;;3.17;;
17524;SDS011;40431;52.198;9.902;2022-10-17T05:02:57;3.97;;;3.57;;
17524;SDS011;40431;52.198;9.902;2022-10-17T05:05:23;3.60;;;3.40;;
17524;SDS011;40431;52.198;9.902;2022-10-17T05:07:50;3.70;;;3.40;;
17524;SDS011;40431;52.198;9.902;2022-10-17T05:10:17;4.73;;;2.50;;
17524;SDS011;40431;52.198;9.902;2022-10-17T05:12:43;2.97;;;2.67;;
17524;SDS011;40431;52.198;9.902;2022-10-17T05:15:11;3.33;;;3.10;;
17524;SDS011;40431;52.198;9.902;2022-10-17T05:17:38;3.50;;;3.27;;
17524;SDS011;40431;52.198;9.902;2022-10-17T05:20:07;2.97;;;2.77;;
17524;SDS011;40431;52.198;9.902;2022-10-17T05:22:34;3.00;;;2.70;;
17524;SDS011;40431;52.198;9.902;2022-10-17T05:25:00;3.10;;;2.90;;
17524;SDS011;40431;52.198;9.902;2022-10-17T05:27:27;3.00;;;2.80;;
17524;SDS011;40431;52.198;9.902;2022-10-17T05:29:53;3.43;;;3.13;;
17524;SDS011;40431;52.198;9.902;2022-10-17T05:32:20;4.20;;;3.90;;
17524;SDS011;40431;52.198;9.902;2022-10-17T05:34:46;3.20;;;2.90;;
17524;SDS011;40431;52.198;9.902;2022-10-17T05:37:14;3.60;;;3.37;;
17524;SDS011;40431;52.198;9.902;2022-10-17T05:39:40;3.33;;;3.10;;
17524;SDS011;40431;52.198;9.902;2022-10-17T05:42:07;3.43;;;2.53;;
17524;SDS011;40431;52.198;9.902;2022-10-17T05:44:33;2.97;;;2.60;;
17524;SDS011;40431;52.198;9.902;2022-10-17T05:47:00;3.00;;;2.80;;
17524;SDS011;40431;52.198;9.902;2022-10-17T05:49:26;4.07;;;3.17;;
17524;SDS011;40431;52.198;9.902;2022-10-17T05:51:53;2.93;;;2.63;;
17524;SDS011;40431;52.198;9.902;2022-10-17T05:54:21;4.37;;;3.47;;
17524;SDS011;40431;52.198;9.902;2022-10-17T05:56:50;3.30;;;3.10;;
17524;SDS011;40431;52.198;9.902;2022-10-17T05:59:16;3.83;;;3.00;;
17524;SDS011;40431;52.198;9.902;2022-10-17T06:01:43;8.40;;;2.90;;
17524;SDS011;40431;52.198;9.902;2022-10-17T06:04:09;3.83;;;3.33;;
17524;SDS011;40431;52.198;9.902;2022-10-17T06:06:36;4.00;;;3.63;;
17524;SDS011;40431;52.198;9.902;2022-10-17T06:09:03;3.50;;;3.30;;
17524;SDS011;40431;52.198;9.902;2022-10-17T06:11:33;3.07;;;2.87;;
17524;SDS011;40431;52.198;9.902;2022-10-17T06:14:00;5.10;;;3.00;;
17524;SDS011;40431;52.198;9.902;2022-10-17T06:16:27;5.77;;;3.47;;
17524;SDS011;40431;52.198;9.902;2022-10-17T06:18:53;3.70;;;3.40;;
17524;SDS011;40431;52.198;9.902;2022-10-17T06:21:21;4.23;;;3.60;;
17524;SDS011;40431;52.198;9.902;2022-10-17T06:23:49;3.70;;;3.40;;
17524;SDS011;40431;52.198;9.902;2022-10-17T06:26:16;4.60;;;3.07;;
17524;SDS011;40431;52.198;9.902;2022-10-17T06:28:44;3.20;;;3.00;;
17524;SDS011;40431;52.198;9.902;2022-10-17T06:31:11;3.73;;;3.30;;
17524;SDS011;40431;52.198;9.902;2022-10-17T06:33:40;4.13;;;3.70;;
17524;SDS011;40431;52.198;9.902;2022-10-17T06:36:08;4.80;;;3.90;;
17524;SDS011;40431;52.198;9.902;2022-10-17T06:38:37;4.37;;;3.37;;
17524;SDS011;40431;52.198;9.902;2022-10-17T06:41:04;4.80;;;3.30;;
17524;SDS011;40431;52.198;9.902;2022-10-17T06:43:32;4.50;;;4.07;;
17524;SDS011;40431;52.198;9.902;2022-10-17T06:46:00;4.37;;;3.43;;
17524;SDS011;40431;52.198;9.902;2022-10-17T06:48:27;4.80;;;3.57;;
17524;SDS011;40431;52.198;9.902;2022-10-17T06:50:57;3.40;;;3.00;;
17524;SDS011;40431;52.198;9.902;2022-10-17T06:53:25;3.20;;;3.00;;
17524;SDS011;40431;52.198;9.902;2022-10-17T06:55:52;4.10;;;3.40;;
17524;SDS011;40431;52.198;9.902;2022-10-17T06:58:22;3.73;;;3.40;;
17524;SDS011;40431;52.198;9.902;2022-10-17T07:00:48;3.33;;;2.80;;
17524;SDS011;40431;52.198;9.902;2022-10-17T07:03:16;4.77;;;2.77;;
17524;SDS011;40431;52.198;9.902;2022-10-17T07:05:47;8.73;;;2.87;;
17524;SDS011;40431;52.198;9.902;2022-10-17T07:08:17;3.30;;;3.10;;
17524;SDS011;40431;52.198;9.902;2022-10-17T07:10:43;3.87;;;3.07;;
17524;SDS011;40431;52.198;9.902;2022-10-17T07:13:10;3.93;;;3.47;;
17524;SDS011;40431;52.198;9.902;2022-10-17T07:15:37;3.37;;;3.07;;
17524;SDS011;40431;52.198;9.902;2022-10-17T07:18:03;4.13;;;2.80;;
17524;SDS011;40431;52.198;9.902;2022-10-17T07:20:32;4.47;;;3.27;;
17524;SDS011;40431;52.198;9.902;2022-10-17T07:22:58;9.27;;;2.90;;
17524;SDS011;40431;52.198;9.902;2022-10-17T07:25:25;3.57;;;3.00;;
17524;SDS011;40431;52.198;9.902;2022-10-17T07:27:52;3.37;;;3.13;;
17524;SDS011;40431;52.198;9.902;2022-10-17T07:30:19;3.87;;;3.20;;
17524;SDS011;40431;52.198;9.902;2022-10-17T07:32:46;4.10;;;2.80;;
17524;SDS011;40431;52.198;9.902;2022-10-17T07:35:13;2.90;;;2.70;;
17524;SDS011;40431;52.198;9.902;2022-10-17T07:37:41;4.97;;;3.20;;
17524;SDS011;40431;52.198;9.902;2022-10-17T07:40:08;3.60;;;3.30;;
17524;SDS011;40431;52.198;9.902;2022-10-17T07:42:35;3.20;;;2.97;;
17524;SDS011;40431;52.198;9.902;2022-10-17T07:45:03;2.87;;;2.67;;
17524;SDS011;40431;52.198;9.902;2022-10-17T07:47:30;5.23;;;2.97;;
17524;SDS011;40431;52.198;9.902;2022-10-17T07:49:59;3.33;;;3.00;;
17524;SDS011;40431;52.198;9.902;2022-10-17T07:52:26;5.67;;;2.83;;
17524;SDS011;40431;52.198;9.902;2022-10-17T07:54:54;3.40;;;3.10;;
17524;SDS011;40431;52.198;9.902;2022-10-17T07:57:20;3.17;;;2.93;;
17524;SDS011;40431;52.198;9.902;2022-10-17T07:59:47;5.23;;;2.90;;
17524;SDS011;40431;52.198;9.902;2022-10-17T08:02:17;3.07;;;2.80;;
17524;SDS011;40431;52.198;9.902;2022-10-17T08:04:47;3.70;;;2.80;;
17524;SDS011;40431;52.198;9.902;2022-10-17T08:07:13;3.23;;;2.93;;
17524;SDS011;40431;52.198;9.902;2022-10-17T08:09:40;6.60;;;3.27;;
17524;SDS011;40431;52.198;9.902;2022-10-17T08:12:08;4.80;;;2.93;;
17524;SDS011;40431;52.198;9.902;2022-10-17T08:14:34;4.07;;;2.97;;
17524;SDS011;40431;52.198;9.902;2022-10-17T08:17:01;4.97;;;3.03;;
17524;SDS011;40431;52.198;9.902;2022-10-17T08:19:27;3.03;;;2.73;;
17524;SDS011;40431;52.198;9.902;2022-10-17T08:21:54;3.33;;;3.00;;
17524;SDS011;40431;52.198;9.902;2022-10-17T08:24:22;7.93;;;3.10;;
17524;SDS011;40431;52.198;9.902;2022-10-17T08:26:48;2.90;;;2.67;;
17524;SDS011;40431;52.198;9.902;2022-10-17T08:29:18;4.07;;;3.17;;
17524;SDS011;40431;52.198;9.902;2022-10-17T08:31:45;4.63;;;2.13;;
17524;SDS011;40431;52.198;9.902;2022-10-17T08:34:11;4.30;;;2.70;;
17524;SDS011;40431;52.198;9.902;2022-10-17T08:36:38;7.50;;;2.43;;
17524;SDS011;40431;52.198;9.902;2022-10-17T08:39:04;3.00;;;2.80;;
17524;SDS011;40431;52.198;9.902;2022-10-17T08:41:37;3.13;;;2.67;;
17524;SDS011;40431;52.198;9.902;2022-10-17T08:44:15;2.77;;;2.50;;
17524;SDS011;40431;52.198;9.902;2022-10-17T08:46:53;2.90;;;2.60;;
17524;SDS011;40431;52.198;9.902;2022-10-17T08:49:24;2.47;;;2.23;;
17524;SDS011;40431;52.198;9.902;2022-10-17T08:51:57;2.90;;;2.63;;
17524;SDS011;40431;52.198;9.902;2022-10-17T08:54:30;2.77;;;2.53;;
17524;SDS011;40431;52.198;9.902;2022-10-17T08:57:10;3.43;;;2.40;;
17524;SDS011;40431;52.198;9.902;2022-10-17T08:59:39;2.87;;;2.63;;
17524;SDS011;40431;52.198;9.902;2022-10-17T09:02:13;3.47;;;2.30;;
17524;SDS011;40431;52.198;9.902;2022-10-17T09:05:04;11.27;;;2.70;;
17524;SDS011;40431;52.198;9.902;2022-10-17T09:07:47;6.40;;;2.80;;
17524;SDS011;40431;52.198;9.902;2022-10-17T09:10:20;6.50;;;2.57;;
17524;SDS011;40431;52.198;9.902;2022-10-17T09:12:53;5.03;;;2.77;;
17524;SDS011;40431;52.198;9.902;2022-10-17T09:15:45;3.00;;;2.53;;
17524;SDS011;40431;52.198;9.902;2022-10-17T09:18:23;5.33;;;2.80;;
17524;SDS011;40431;52.198;9.902;2022-10-17T09:20:53;3.10;;;2.50;;
17524;SDS011;40431;52.198;9.902;2022-10-17T09:23:24;3.00;;;2.50;;
17524;SDS011;40431;52.198;9.902;2022-10-17T09:25:57;3.20;;;2.90;;
17524;SDS011;40431;52.198;9.902;2022-10-17T09:28:26;4.80;;;2.87;;
17524;SDS011;40431;52.198;9.902;2022-10-17T09:30:58;5.47;;;2.47;;
17524;SDS011;40431;52.198;9.902;2022-10-17T09:33:27;2.63;;;2.43;;
17524;SDS011;40431;52.198;9.902;2022-10-17T09:35:58;3.10;;;2.80;;
17524;SDS011;40431;52.198;9.902;2022-10-17T09:38:39;2.90;;;2.53;;
17524;SDS011;40431;52.198;9.902;2022-10-17T09:41:12;2.90;;;2.60;;
17524;SDS011;40431;52.198;9.902;2022-10-17T09:43:42;4.50;;;2.50;;
17524;SDS011;40431;52.198;9.902;2022-10-17T09:46:12;3.00;;;2.70;;
17524;SDS011;40431;52.198;9.902;2022-10-17T09:48:45;3.90;;;2.53;;
17524;SDS011;40431;52.198;9.902;2022-10-17T09:51:15;3.00;;;2.70;;
17524;SDS011;40431;52.198;9.902;2022-10-17T09:53:44;6.57;;;2.40;;
17524;SDS011;40431;52.198;9.902;2022-10-17T09:56:15;2.83;;;2.10;;
17524;SDS011;40431;52.198;9.902;2022-10-17T09:58:44;3.60;;;2.37;;
17524;SDS011;40431;52.198;9.902;2022-10-17T10:01:18;3.53;;;2.50;;
17524;SDS011;40431;52.198;9.902;2022-10-17T10:03:46;3.47;;;2.40;;
17524;SDS011;40431;52.198;9.902;2022-10-17T10:06:14;3.60;;;2.10;;
17524;SDS011;40431;52.198;9.902;2022-10-17T10:08:50;3.77;;;2.57;;
17524;SDS011;40431;52.198;9.902;2022-10-17T10:11:18;3.23;;;2.40;;
17524;SDS011;40431;52.198;9.902;2022-10-17T10:13:48;4.10;;;1.90;;
17524;SDS011;40431;52.198;9.902;2022-10-17T10:16:21;6.30;;;2.33;;
17524;SDS011;40431;52.198;9.902;2022-10-17T10:18:49;3.40;;;2.67;;
17524;SDS011;40431;52.198;9.902;2022-10-17T10:21:17;9.53;;;2.60;;
17524;SDS011;40431;52.198;9.902;2022-10-17T10:24:01;6.80;;;2.47;;
17524;SDS011;40431;52.198;9.902;2022-10-17T10:26:31;4.10;;;2.63;;
17524;SDS011;40431;52.198;9.902;2022-10-17T10:29:02;4.87;;;2.47;;
17524;SDS011;40431;52.198;9.902;2022-10-17T10:31:34;4.87;;;2.47;;
17524;SDS011;40431;52.198;9.902;2022-10-17T10:34:13;4.10;;;2.37;;
17524;SDS011;40431;52.198;9.902;2022-10-17T10:36:44;3.73;;;2.23;;
17524;SDS011;40431;52.198;9.902;2022-10-17T10:39:20;2.83;;;2.20;;
17524;SDS011;40431;52.198;9.902;2022-10-17T10:41:57;4.20;;;2.23;;
17524;SDS011;40431;52.198;9.902;2022-10-17T10:44:25;3.50;;;2.37;;
17524;SDS011;40431;52.198;9.902;2022-10-17T10:47:08;3.43;;;2.43;;
17524;SDS011;40431;52.198;9.902;2022-10-17T10:49:42;2.23;;;2.13;;
17524;SDS011;40431;52.198;9.902;2022-10-17T10:52:11;4.30;;;2.50;;
17524;SDS011;40431;52.198;9.902;2022-10-17T10:54:47;5.60;;;2.67;;
17524;SDS011;40431;52.198;9.902;2022-10-17T10:57:20;3.87;;;2.37;;
17524;SDS011;40431;52.198;9.902;2022-10-17T10:59:54;4.57;;;2.30;;
17524;SDS011;40431;52.198;9.902;2022-10-17T11:02:29;4.03;;;2.67;;
17524;SDS011;40431;52.198;9.902;2022-10-17T11:05:02;2.60;;;2.33;;
17524;SDS011;40431;52.198;9.902;2022-10-17T11:07:32;4.00;;;2.40;;
17524;SDS011;40431;52.198;9.902;2022-10-17T11:10:07;3.67;;;2.53;;
17524;SDS011;40431;52.198;9.902;2022-10-17T11:12:40;3.57;;;2.50;;
17524;SDS011;40431;52.198;9.902;2022-10-17T11:15:15;2.70;;;2.50;;
17524;SDS011;40431;52.198;9.902;2022-10-17T11:17:49;4.30;;;2.20;;
17524;SDS011;40431;52.198;9.902;2022-10-17T11:20:21;2.80;;;2.33;;
17524;SDS011;40431;52.198;9.902;2022-10-17T11:22:55;6.50;;;2.50;;
17524;SDS011;40431;52.198;9.902;2022-10-17T11:25:30;2.53;;;2.17;;
17524;SDS011;40431;52.198;9.902;2022-10-17T11:27:58;4.70;;;2.33;;
17524;SDS011;40431;52.198;9.902;2022-10-17T11:30:26;4.63;;;1.80;;
17524;SDS011;40431;52.198;9.902;2022-10-17T11:32:59;7.53;;;2.67;;
17524;SDS011;40431;52.198;9.902;2022-10-17T11:35:28;2.27;;;2.07;;
17524;SDS011;40431;52.198;9.902;2022-10-17T11:38:00;4.27;;;2.00;;
17524;SDS011;40431;52.198;9.902;2022-10-17T11:40:34;4.47;;;2.20;;
17524;SDS011;40431;52.198;9.902;2022-10-17T11:43:04;3.50;;;2.23;;
17524;SDS011;40431;52.198;9.902;2022-10-17T11:45:38;3.87;;;2.00;;
17524;SDS011;40431;52.198;9.902;2022-10-17T11:48:16;2.80;;;2.53;;
17524;SDS011;40431;52.198;9.902;2022-10-17T11:50:48;5.77;;;2.07;;
17524;SDS011;40431;52.198;9.902;2022-10-17T11:53:22;7.17;;;2.17;;
17524;SDS011;40431;52.198;9.902;2022-10-17T11:55:51;3.97;;;2.20;;
17524;SDS011;40431;52.198;9.902;2022-10-17T11:58:23;3.50;;;2.10;;
17524;SDS011;40431;52.198;9.902;2022-10-17T12:00:57;4.53;;;2.00;;
17524;SDS011;40431;52.198;9.902;2022-10-17T12:03:38;2.83;;;2.10;;
17524;SDS011;40431;52.198;9.902;2022-10-17T12:06:12;2.43;;;2.00;;
17524;SDS011;40431;52.198;9.902;2022-10-17T12:08:44;2.93;;;2.13;;
17524;SDS011;40431;52.198;9.902;2022-10-17T12:11:18;5.47;;;2.30;;
17524;SDS011;40431;52.198;9.902;2022-10-17T12:13:59;6.57;;;2.03;;
17524;SDS011;40431;52.198;9.902;2022-10-17T12:19:20;2.40;;;2.20;;
17524;SDS011;40431;52.198;9.902;2022-10-17T12:21:53;4.77;;;1.93;;
17524;SDS011;40431;52.198;9.902;2022-10-17T12:24:25;12.43;;;1.80;;
17524;SDS011;40431;52.198;9.902;2022-10-17T12:27:08;2.40;;;1.87;;
17524;SDS011;40431;52.198;9.902;2022-10-17T12:29:47;4.90;;;1.93;;
17524;SDS011;40431;52.198;9.902;2022-10-17T12:32:15;3.67;;;2.03;;
17524;SDS011;40431;52.198;9.902;2022-10-17T12:34:50;6.40;;;2.13;;
17524;SDS011;40431;52.198;9.902;2022-10-17T12:46:10;3.27;;;2.03;;
17524;SDS011;40431;52.198;9.902;2022-10-17T12:52:16;3.50;;;2.20;;
17524;SDS011;40431;52.198;9.902;2022-10-17T12:54:52;5.20;;;2.00;;
17524;SDS011;40431;52.198;9.902;2022-10-17T12:57:28;3.17;;;2.00;;
17524;SDS011;40431;52.198;9.902;2022-10-17T13:00:00;3.23;;;2.33;;
17524;SDS011;40431;52.198;9.902;2022-10-17T13:02:29;7.10;;;2.23;;
17524;SDS011;40431;52.198;9.902;2022-10-17T13:04:57;4.47;;;1.93;;
17524;SDS011;40431;52.198;9.902;2022-10-17T13:07:33;2.03;;;1.73;;
17524;SDS011;40431;52.198;9.902;2022-10-17T13:10:01;2.67;;;1.97;;
17524;SDS011;40431;52.198;9.902;2022-10-17T13:12:29;3.47;;;2.03;;
17524;SDS011;40431;52.198;9.902;2022-10-17T13:14:59;2.50;;;2.00;;
17524;SDS011;40431;52.198;9.902;2022-10-17T13:17:28;5.70;;;2.27;;
17524;SDS011;40431;52.198;9.902;2022-10-17T13:19:56;3.07;;;1.70;;
17524;SDS011;40431;52.198;9.902;2022-10-17T13:22:23;2.90;;;2.03;;
17524;SDS011;40431;52.198;9.902;2022-10-17T13:25:04;2.40;;;1.87;;
17524;SDS011;40431;52.198;9.902;2022-10-17T13:27:33;3.00;;;2.23;;
17524;SDS011;40431;52.198;9.902;2022-10-17T13:32:47;6.70;;;2.50;;
17524;SDS011;40431;52.198;9.902;2022-10-17T13:35:15;2.93;;;2.47;;
17524;SDS011;40431;52.198;9.902;2022-10-17T13:37:47;5.73;;;2.00;;
17524;SDS011;40431;52.198;9.902;2022-10-17T13:40:16;2.87;;;2.03;;
17524;SDS011;40431;52.198;9.902;2022-10-17T13:42:44;2.93;;;2.30;;
17524;SDS011;40431;52.198;9.902;2022-10-17T13:45:15;5.00;;;2.37;;
17524;SDS011;40431;52.198;9.902;2022-10-17T13:47:44;2.67;;;2.20;;
17524;SDS011;40431;52.198;9.902;2022-10-17T13:50:23;3.77;;;2.00;;
17524;SDS011;40431;52.198;9.902;2022-10-17T13:55:54;3.07;;;2.57;;
17524;SDS011;40431;52.198;9.902;2022-10-17T13:58:22;4.73;;;2.50;;
17524;SDS011;40431;52.198;9.902;2022-10-17T14:00:51;2.63;;;2.10;;
17524;SDS011;40431;52.198;9.902;2022-10-17T14:03:19;4.80;;;2.40;;
17524;SDS011;40431;52.198;9.902;2022-10-17T14:08:48;4.47;;;2.60;;
17524;SDS011;40431;52.198;9.902;2022-10-17T14:11:23;4.80;;;2.40;;
17524;SDS011;40431;52.198;9.902;2022-10-17T14:13:54;8.10;;;2.53;;
17524;SDS011;40431;52.198;9.902;2022-10-17T14:16:22;3.10;;;2.40;;
17524;SDS011;40431;52.198;9.902;2022-10-17T14:18:51;3.67;;;2.73;;
17524;SDS011;40431;52.198;9.902;2022-10-17T14:21:19;4.63;;;2.63;;
17524;SDS011;40431;52.198;9.902;2022-10-17T14:23:48;2.40;;;2.20;;
17524;SDS011;40431;52.198;9.902;2022-10-17T14:26:17;5.63;;;2.63;;
17524;SDS011;40431;52.198;9.902;2022-10-17T14:28:47;3.67;;;2.37;;
17524;SDS011;40431;52.198;9.902;2022-10-17T14:31:20;4.43;;;2.43;;
17524;SDS011;40431;52.198;9.902;2022-10-17T14:33:50;4.97;;;2.63;;
17524;SDS011;40431;52.198;9.902;2022-10-17T14:36:18;4.67;;;2.50;;
17524;SDS011;40431;52.198;9.902;2022-10-17T14:38:47;4.17;;;2.77;;
17524;SDS011;40431;52.198;9.902;2022-10-17T14:41:18;3.67;;;3.17;;
17524;SDS011;40431;52.198;9.902;2022-10-17T14:43:53;6.17;;;2.93;;
17524;SDS011;40431;52.198;9.902;2022-10-17T14:46:21;3.33;;;2.50;;
17524;SDS011;40431;52.198;9.902;2022-10-17T14:48:50;6.00;;;2.77;;
17524;SDS011;40431;52.198;9.902;2022-10-17T14:51:19;3.43;;;3.00;;
17524;SDS011;40431;52.198;9.902;2022-10-17T14:53:57;4.37;;;2.97;;
17524;SDS011;40431;52.198;9.902;2022-10-17T14:56:26;6.03;;;2.70;;
17524;SDS011;40431;52.198;9.902;2022-10-17T14:59:00;5.90;;;2.67;;
17524;SDS011;40431;52.198;9.902;2022-10-17T15:01:29;4.07;;;2.77;;
17524;SDS011;40431;52.198;9.902;2022-10-17T15:03:56;3.83;;;2.77;;
17524;SDS011;40431;52.198;9.902;2022-10-17T15:06:24;4.33;;;2.67;;
17524;SDS011;40431;52.198;9.902;2022-10-17T15:08:53;5.70;;;3.10;;
17524;SDS011;40431;52.198;9.902;2022-10-17T15:11:19;3.40;;;2.53;;
17524;SDS011;40431;52.198;9.902;2022-10-17T15:13:46;3.97;;;2.87;;
17524;SDS011;40431;52.198;9.902;2022-10-17T15:16:14;5.43;;;2.80;;
17524;SDS011;40431;52.198;9.902;2022-10-17T15:18:44;2.93;;;2.70;;
17524;SDS011;40431;52.198;9.902;2022-10-17T15:21:11;4.30;;;3.40;;
17524;SDS011;40431;52.198;9.902;2022-10-17T15:23:38;5.57;;;3.20;;
17524;SDS011;40431;52.198;9.902;2022-10-17T15:26:10;3.73;;;3.40;;
17524;SDS011;40431;52.198;9.902;2022-10-17T15:28:39;4.73;;;3.00;;
17524;SDS011;40431;52.198;9.902;2022-10-17T15:31:07;7.80;;;3.73;;